Time;durP1;ratioP1;P1;durP2;ratioP2;P2;SDS_P1;SDS_P2;PMS_P1;PMS_P2;Temp;Humidity;BMP_temperature;BMP_pressure;BME280_temperature;BME280_humidity;BME280_pressure;Samples;Min_cycle;Max_cycle;Signal;HPM_P1;HPM_P2
2022/10/23 00:00:48;;;;;;;37.58;23.13;;;;;;;10.71;61.27;99773.91;5072325;28;20029;-71
2022/10/23 00:03:13;;;;;;;34.08;21.35;;;;;;;10.79;61.18;99764.69;5071981;28;20028;-70
2022/10/23 00:05:40;;;;;;;38.28;21.63;;;;;;;10.87;60.69;99765.03;5069814;28;20316;-71
2022/10/23 00:08:06;;;;;;;35.30;22.52;;;;;;;10.89;60.75;99768.31;5073784;28;20111;-70
2022/10/23 00:10:31;;;;;;;33.13;21.13;;;;;;;10.95;60.87;99766.97;5055408;28;20148;-71
2022/10/23 00:12:57;;;;;;;31.67;20.15;;;;;;;10.98;60.69;99755.16;5074897;28;20107;-71
2022/10/23 00:15:22;;;;;;;35.72;20.50;;;;;;;10.98;60.85;99740.31;5074038;28;20029;-70
2022/10/23 00:17:49;;;;;;;36.30;21.40;;;;;;;10.95;60.46;99744.59;5073707;28;20131;-71
2022/10/23 00:20:16;;;;;;;38.72;23.40;;;;;;;10.90;61.57;99739.19;5074505;28;20044;-71
2022/10/23 00:22:42;;;;;;;40.20;24.05;;;;;;;10.79;61.79;99755.47;5074359;28;20029;-70
2022/10/23 00:25:09;;;;;;;38.42;23.67;;;;;;;10.55;62.75;99755.97;5074678;28;20411;-71
2022/10/23 00:27:34;;;;;;;42.55;23.65;;;;;;;10.09;64.66;99737.47;5060241;28;20032;-70
2022/10/23 00:30:01;;;;;;;36.28;21.83;;;;;;;10.42;63.67;99741.81;5073585;28;20029;-71
2022/10/23 00:32:27;;;;;;;39.08;21.75;;;;;;;10.60;62.58;99739.00;5074143;28;20047;-71
2022/10/23 00:34:52;;;;;;;48.75;25.10;;;;;;;10.63;62.73;99753.16;5074285;28;20036;-71
2022/10/23 00:37:18;;;;;;;33.67;22.23;;;;;;;10.33;63.51;99752.13;5074220;28;20092;-71
2022/10/23 00:39:44;;;;;;;38.42;22.75;;;;;;;10.44;63.54;99753.47;5055391;28;20439;-70
2022/10/23 00:42:14;;;;;;;31.10;21.45;;;;;;;10.11;64.82;99749.13;5074314;28;20029;-71
2022/10/23 00:44:40;;;;;;;43.22;21.88;;;;;;;10.17;64.55;99752.59;5072748;28;20029;-71
2022/10/23 00:47:05;;;;;;;36.58;22.10;;;;;;;9.98;65.50;99745.31;5072093;28;20142;-71
2022/10/23 00:49:31;;;;;;;34.35;22.80;;;;;;;9.97;65.69;99749.25;5055160;28;20024;-71
2022/10/23 00:52:00;;;;;;;36.70;21.25;;;;;;;10.17;64.80;99741.41;5073238;28;20032;-71
2022/10/23 00:54:30;;;;;;;36.78;21.52;;;;;;;9.91;65.97;99741.34;5055076;28;20410;-70
2022/10/23 00:56:59;;;;;;;34.42;22.48;;;;;;;9.50;67.86;99744.16;5072995;28;20202;-71
2022/10/23 00:59:25;;;;;;;37.33;23.25;;;;;;;8.98;69.96;99751.03;5072149;28;20040;-70
2022/10/23 01:01:51;;;;;;;39.40;24.42;;;;;;;9.20;69.53;99735.44;5055233;28;20037;-71
2022/10/23 01:04:16;;;;;;;41.22;23.63;;;;;;;9.42;68.04;99739.34;5073856;28;20078;-71
2022/10/23 01:07:09;;;;;;;39.65;22.27;;;;;;;9.60;67.16;99731.06;5073473;28;20034;-71
2022/10/23 01:09:45;;;;;;;35.92;22.33;;;;;;;9.59;67.91;99735.81;5072786;28;20053;-70
2022/10/23 01:12:23;;;;;;;40.50;22.98;;;;;;;9.33;68.63;99735.66;5070581;28;20472;-71
2022/10/23 01:15:00;;;;;;;38.33;23.60;;;;;;;9.12;70.17;99733.44;5073552;28;20035;-70
2022/10/23 01:17:41;;;;;;;36.22;24.17;;;;;;;9.23;70.14;99734.81;5055671;28;20035;-71
2022/10/23 01:20:32;;;;;;;36.03;22.38;;;;;;;9.22;70.84;99746.28;5073684;28;20032;-71
2022/10/23 01:23:17;;;;;;;45.90;22.67;;;;;;;9.21;70.60;99748.25;5054795;28;20035;-70
2022/10/23 01:26:14;;;;;;;40.72;21.90;;;;;;;9.49;69.20;99736.91;5072239;28;20558;-70
2022/10/23 01:28:46;;;;;;;43.88;23.95;;;;;;;9.55;69.78;99729.22;5072272;28;20399;-70
2022/10/23 01:31:17;;;;;;;38.28;24.60;;;;;;;9.73;68.64;99724.53;5071905;28;20063;-70
2022/10/23 01:33:59;;;;;;;36.85;23.60;;;;;;;9.83;68.49;99718.66;5072109;28;20025;-71
2022/10/23 01:36:28;;;;;;;36.13;23.20;;;;;;;9.90;68.78;99722.94;5053167;28;20044;-70
2022/10/23 01:39:07;;;;;;;41.35;24.70;;;;;;;9.82;69.34;99725.38;5053254;28;20021;-70
2022/10/23 01:42:05;;;;;;;46.50;26.92;;;;;;;9.87;68.56;99712.41;5069125;28;20131;-70
2022/10/23 01:44:39;;;;;;;48.28;26.63;;;;;;;10.12;67.81;99724.78;5064205;28;20040;-70
2022/10/23 01:47:08;;;;;;;40.08;24.23;;;;;;;10.32;67.00;99717.75;5072928;28;20021;-71
2022/10/23 01:49:36;;;;;;;36.72;22.20;;;;;;;10.47;66.20;99708.06;5073155;28;20028;-71
2022/10/23 01:52:06;;;;;;;29.88;19.40;;;;;;;10.64;65.93;99721.25;5072905;28;20054;-70
2022/10/23 01:54:35;;;;;;;30.97;19.23;;;;;;;10.61;65.88;99723.88;5071195;28;20024;-70
2022/10/23 01:57:03;;;;;;;46.38;21.17;;;;;;;10.75;65.30;99718.94;5072857;28;20028;-71
2022/10/23 01:59:34;;;;;;;32.88;20.27;;;;;;;10.24;67.61;99715.78;5072914;28;20487;-70
2022/10/23 02:02:01;;;;;;;29.70;21.88;;;;;;;10.39;66.05;99731.25;5071412;28;20029;-70
2022/10/23 02:04:41;;;;;;;37.53;22.90;;;;;;;10.56;65.63;99738.03;5071231;28;20506;-71
2022/10/23 02:07:07;;;;;;;40.50;23.17;;;;;;;10.17;65.34;99740.56;5065247;28;20506;-70
2022/10/23 02:09:32;;;;;;;35.97;23.85;;;;;;;9.90;66.34;99745.28;5063673;28;20073;-70
2022/10/23 02:12:06;;;;;;;35.25;22.67;;;;;;;9.99;66.57;99743.34;5071406;28;20016;-70
2022/10/23 02:14:31;;;;;;;34.30;23.17;;;;;;;10.30;64.69;99741.59;5072164;28;20050;-70
2022/10/23 02:17:07;;;;;;;36.40;23.30;;;;;;;10.34;64.10;99743.41;5072394;28;20038;-70
2022/10/23 02:19:49;;;;;;;32.70;20.88;;;;;;;10.45;63.76;99748.72;5052614;28;20024;-71
2022/10/23 02:22:28;;;;;;;38.80;21.90;;;;;;;10.36;63.91;99743.91;5052326;28;20039;-71
2022/10/23 02:25:02;;;;;;;34.08;22.13;;;;;;;10.38;63.78;99743.59;5045313;28;20031;-70
2022/10/23 02:27:39;;;;;;;35.15;20.85;;;;;;;10.36;64.43;99751.47;5072024;28;20075;-70
2022/10/23 02:30:08;;;;;;;31.40;20.27;;;;;;;9.47;66.83;99755.13;5071217;28;20103;-70
2022/10/23 02:32:36;;;;;;;31.73;19.67;;;;;;;9.32;67.62;99761.94;5071972;28;20099;-70
2022/10/23 02:35:05;;;;;;;32.03;20.58;;;;;;;9.53;67.29;99759.41;5072011;28;20028;-70
2022/10/23 02:37:31;;;;;;;33.67;21.95;;;;;;;9.64;66.90;99765.56;5054117;28;20016;-70
2022/10/23 02:39:57;;;;;;;36.47;20.00;;;;;;;9.57;66.79;99771.63;5053154;28;20045;-70
2022/10/23 02:42:31;;;;;;;33.45;19.48;;;;;;;9.55;67.00;99773.91;5071023;28;20059;-70
2022/10/23 02:45:11;;;;;;;28.75;19.10;;;;;;;9.48;67.38;99779.09;5071960;28;20040;-70
2022/10/23 02:48:03;;;;;;;35.53;20.25;;;;;;;9.33;67.95;99770.00;5071990;28;20142;-70
2022/10/23 02:50:46;;;;;;;40.28;20.27;;;;;;;9.39;67.67;99776.28;5053902;28;20119;-70
2022/10/23 02:53:32;;;;;;;30.23;20.48;;;;;;;9.33;68.11;99770.00;5071603;28;20099;-70
2022/10/23 02:56:17;;;;;;;32.35;19.55;;;;;;;9.29;68.48;99777.38;5069812;28;20025;-70
2022/10/23 02:58:55;;;;;;;32.10;19.55;;;;;;;9.21;69.07;99781.72;5053763;28;20133;-70
2022/10/23 03:01:26;;;;;;;35.47;19.73;;;;;;;9.30;68.77;99797.72;5053758;28;20066;-70
2022/10/23 03:03:56;;;;;;;36.22;18.85;;;;;;;9.43;68.63;99794.03;5071465;28;20029;-70
2022/10/23 03:06:23;;;;;;;28.58;20.65;;;;;;;9.55;68.03;99796.25;5071823;28;20023;-71
2022/10/23 03:08:53;;;;;;;37.97;20.60;;;;;;;9.64;67.84;99788.72;5053503;28;20063;-70
2022/10/23 03:11:19;;;;;;;46.08;23.25;;;;;;;9.57;68.71;99787.53;5070618;28;20051;-70
2022/10/23 03:13:45;;;;;;;51.40;28.83;;;;;;;9.60;69.09;99782.13;5069914;28;20050;-70
2022/10/23 03:16:11;;;;;;;40.08;25.23;;;;;;;9.74;68.30;99772.81;5071683;28;20024;-71
2022/10/23 03:18:36;;;;;;;53.97;30.77;;;;;;;9.62;68.92;99774.25;5072983;28;20013;-70
2022/10/23 03:21:02;;;;;;;40.70;25.63;;;;;;;9.74;69.20;99781.19;5075842;28;20036;-71
2022/10/23 03:23:27;;;;;;;30.60;21.05;;;;;;;9.89;68.83;99780.75;5075254;28;20024;-70
2022/10/23 03:25:54;;;;;;;37.17;22.27;;;;;;;9.82;69.43;99786.00;5075863;28;20036;-71
2022/10/23 03:28:20;;;;;;;44.30;25.33;;;;;;;9.82;70.04;99786.00;5073556;28;20024;-70
2022/10/23 03:30:46;;;;;;;39.17;24.52;;;;;;;10.06;68.43;99787.59;5071800;28;20025;-71
2022/10/23 03:33:11;;;;;;;35.95;23.27;;;;;;;10.15;68.12;99785.66;5065982;28;20432;-70
2022/10/23 03:35:36;;;;;;;39.65;22.65;;;;;;;10.16;67.58;99784.50;5061355;28;20052;-70
2022/10/23 03:38:02;;;;;;;43.05;25.58;;;;;;;10.10;68.08;99799.75;5048558;28;20033;-70
2022/10/23 03:40:27;;;;;;;31.80;21.35;;;;;;;10.03;69.18;99794.63;5074604;28;20078;-70
2022/10/23 03:42:53;;;;;;;35.60;20.70;;;;;;;10.13;67.96;99798.28;5055506;28;20048;-70
2022/10/23 03:45:18;;;;;;;34.60;21.02;;;;;;;10.31;67.47;99796.38;5069371;28;20071;-70
2022/10/23 03:47:44;;;;;;;32.45;20.27;;;;;;;10.43;67.11;99793.78;5056356;28;20487;-70
2022/10/23 03:50:10;;;;;;;35.00;20.67;;;;;;;10.14;67.86;99811.94;5075284;28;20028;-71
2022/10/23 03:52:35;;;;;;;39.08;19.08;;;;;;;10.13;67.25;99801.09;5075155;28;20029;-69
2022/10/23 03:55:01;;;;;;;38.85;22.50;;;;;;;9.88;68.55;99809.84;5074382;28;20017;-69
2022/10/23 03:57:26;;;;;;;29.98;19.90;;;;;;;9.98;67.33;99803.19;5075056;28;20529;-69
2022/10/23 03:59:52;;;;;;;37.28;19.98;;;;;;;10.02;67.66;99817.34;5054716;28;20028;-69
2022/10/23 04:02:18;;;;;;;32.53;21.05;;;;;;;9.97;67.25;99816.31;5062305;28;20024;-69
2022/10/23 04:04:43;;;;;;;38.33;21.52;;;;;;;10.20;66.13;99815.41;5074978;28;20024;-70
2022/10/23 04:07:09;;;;;;;43.72;20.77;;;;;;;10.32;65.25;99820.38;5074556;28;20538;-69
2022/10/23 04:09:34;;;;;;;35.28;17.63;;;;;;;10.12;65.60;99828.19;5054063;28;20167;-68
2022/10/23 04:12:00;;;;;;;26.73;17.77;;;;;;;9.98;66.68;99815.16;5069543;28;20040;-68
2022/10/23 04:14:25;;;;;;;34.33;16.92;;;;;;;10.10;65.73;99806.19;5069736;28;20039;-69
2022/10/23 04:16:51;;;;;;;41.97;17.08;;;;;;;10.17;66.07;99808.50;5072239;28;20477;-69
2022/10/23 04:19:16;;;;;;;31.13;17.05;;;;;;;10.01;66.57;99819.28;5042256;28;20021;-69
2022/10/23 04:21:42;;;;;;;52.85;21.13;;;;;;;10.15;65.76;99824.78;5054809;28;20403;-69
2022/10/23 04:24:08;;;;;;;38.40;19.85;;;;;;;10.22;65.84;99815.91;5045188;28;20035;-69
2022/10/23 04:26:33;;;;;;;36.08;18.48;;;;;;;10.37;65.17;99821.06;5069029;28;20454;-69
2022/10/23 04:28:59;;;;;;;29.48;18.05;;;;;;;10.48;64.57;99829.97;5065919;28;20036;-68
2022/10/23 04:31:24;;;;;;;27.10;18.50;;;;;;;10.38;64.92;99831.09;5072917;28;20032;-68
2022/10/23 04:33:50;;;;;;;34.63;19.55;;;;;;;10.43;64.90;99832.94;5074827;28;20020;-69
2022/10/23 04:36:15;;;;;;;29.05;18.75;;;;;;;10.52;64.56;99827.34;5074577;28;20399;-69
2022/10/23 04:38:41;;;;;;;41.33;29.33;;;;;;;10.41;64.68;99818.47;5065509;28;20123;-68
2022/10/23 04:41:06;;;;;;;36.38;24.27;;;;;;;10.17;65.00;99819.69;5052196;28;20036;-68
2022/10/23 04:43:32;;;;;;;39.38;22.77;;;;;;;10.10;66.07;99813.72;5071586;28;20520;-69
2022/10/23 04:45:58;;;;;;;35.13;19.20;;;;;;;10.13;65.78;99827.03;5072206;28;20032;-69
2022/10/23 04:48:24;;;;;;;31.25;17.80;;;;;;;10.04;66.49;99820.63;5073158;28;20029;-69
2022/10/23 04:51:01;;;;;;;29.58;18.25;;;;;;;10.16;66.38;99826.44;5071159;28;20101;-68
2022/10/23 04:53:27;;;;;;;30.92;18.85;;;;;;;10.26;65.87;99828.09;5066969;28;20016;-68
2022/10/23 04:55:55;;;;;;;32.92;17.80;;;;;;;10.42;65.38;99838.84;5055767;28;20111;-68
2022/10/23 04:58:21;;;;;;;42.40;19.30;;;;;;;10.55;64.95;99842.66;5055843;28;20089;-69
2022/10/23 05:00:48;;;;;;;42.58;19.48;;;;;;;10.63;64.58;99845.47;5061527;28;20023;-69
2022/10/23 05:03:14;;;;;;;37.35;18.35;;;;;;;10.66;64.99;99849.59;5074041;28;20028;-67
2022/10/23 05:05:41;;;;;;;35.80;20.40;;;;;;;10.64;65.06;99855.50;5071660;28;20107;-70
2022/10/23 05:08:07;;;;;;;39.40;20.50;;;;;;;10.65;65.36;99848.78;5060823;28;20040;-71
2022/10/23 05:10:32;;;;;;;40.78;22.55;;;;;;;10.78;64.86;99852.59;5063356;28;20545;-71
2022/10/23 05:12:58;;;;;;;42.28;20.20;;;;;;;10.76;64.95;99854.06;5055162;28;20032;-71
2022/10/23 05:15:23;;;;;;;27.30;15.80;;;;;;;10.91;64.70;99861.97;5055068;28;20028;-71
2022/10/23 05:17:54;;;;;;;25.00;13.45;;;;;;;11.04;63.92;99848.97;5071023;28;20497;-70
2022/10/23 05:20:22;;;;;;;24.00;11.10;;;;;;;11.31;62.51;99855.38;5051182;28;20033;-71
2022/10/23 05:22:50;;;;;;;35.65;16.73;;;;;;;11.61;61.91;99871.50;5054899;28;20036;-72
2022/10/23 05:25:16;;;;;;;32.63;17.25;;;;;;;11.84;61.30;99858.13;5073035;28;20032;-69
2022/10/23 05:27:41;;;;;;;26.30;15.43;;;;;;;11.97;61.16;99861.03;5073448;28;20027;-70
2022/10/23 05:30:08;;;;;;;32.00;16.30;;;;;;;12.17;60.37;99873.53;5055401;28;20112;-70
2022/10/23 05:32:35;;;;;;;31.95;17.17;;;;;;;12.42;60.32;99882.16;5070532;28;20093;-70
2022/10/23 05:35:07;;;;;;;33.17;17.35;;;;;;;12.70;58.76;99887.28;5071984;28;20099;-70
2022/10/23 05:37:33;;;;;;;36.08;17.23;;;;;;;12.83;58.29;99888.22;5070741;28;20090;-72
2022/10/23 05:39:58;;;;;;;38.05;17.63;;;;;;;12.90;58.69;99883.69;5070900;28;20012;-70
2022/10/23 05:42:24;;;;;;;41.25;16.50;;;;;;;13.06;58.57;99885.88;5072059;28;20031;-70
2022/10/23 05:44:49;;;;;;;34.03;18.05;;;;;;;13.19;58.23;99893.22;5071345;28;20048;-71
2022/10/23 05:47:14;;;;;;;37.72;15.98;;;;;;;13.42;56.35;99894.88;5072571;28;20055;-70
2022/10/23 05:49:40;;;;;;;35.45;17.48;;;;;;;13.61;55.89;99898.00;5052396;28;20041;-70
2022/10/23 05:52:05;;;;;;;45.65;20.23;;;;;;;13.77;54.96;99894.56;5063569;28;20034;-72
2022/10/23 05:54:31;;;;;;;46.50;21.10;;;;;;;13.95;54.83;99895.22;5069440;28;20145;-73
2022/10/23 05:56:57;;;;;;;46.03;20.73;;;;;;;14.16;54.66;99912.00;5069693;28;20028;-71
2022/10/23 05:59:22;;;;;;;34.28;18.00;;;;;;;14.25;54.36;99911.09;5070534;28;20020;-70
2022/10/23 06:01:48;;;;;;;32.35;18.77;;;;;;;14.40;53.88;99918.84;5067511;28;20115;-70
2022/10/23 06:04:13;;;;;;;35.13;18.05;;;;;;;14.62;53.51;99919.56;5069002;28;20040;-68
2022/10/23 06:06:39;;;;;;;46.42;18.58;;;;;;;14.76;53.50;99918.41;5070030;28;20039;-68
2022/10/23 06:09:05;;;;;;;37.63;16.80;;;;;;;14.96;52.07;99919.44;5063224;28;20453;-69
2022/10/23 06:11:30;;;;;;;44.28;16.35;;;;;;;15.17;50.83;99913.66;5065746;28;20044;-68
2022/10/23 06:13:56;;;;;;;31.75;16.00;;;;;;;15.39;50.60;99926.41;5052078;28;20029;-68
2022/10/23 06:16:26;;;;;;;25.90;11.65;;;;;;;15.62;48.48;99933.50;5063562;28;20035;-70
2022/10/23 06:18:51;;;;;;;18.95;11.48;;;;;;;15.90;47.95;99932.69;5064345;28;20039;-70
2022/10/23 06:21:17;;;;;;;27.83;10.77;;;;;;;16.18;47.28;99924.19;5063776;28;20036;-70
2022/10/23 06:23:44;;;;;;;25.30;10.40;;;;;;;16.43;46.51;99926.84;5050250;28;20032;-70
2022/10/23 06:26:12;;;;;;;19.55;10.55;;;;;;;16.68;46.15;99938.78;5066988;28;20038;-73
2022/10/23 06:28:38;;;;;;;18.77;10.43;;;;;;;16.87;45.54;99939.22;5069778;28;20052;-72
2022/10/23 06:31:09;;;;;;;23.92;10.60;;;;;;;17.06;44.22;99952.63;5046760;28;20043;-72
2022/10/23 06:33:34;;;;;;;25.20;10.88;;;;;;;17.25;44.17;99952.69;5059726;28;20459;-73
2022/10/23 06:35:59;;;;;;;27.98;10.27;;;;;;;17.49;43.47;99950.75;5064622;28;20039;-71
2022/10/23 06:38:25;;;;;;;19.02;9.35;;;;;;;17.71;42.94;99953.25;5067456;28;20028;-73
2022/10/23 06:40:55;;;;;;;15.05;8.48;;;;;;;17.93;41.79;99943.16;5050783;28;20041;-74
2022/10/23 06:43:21;;;;;;;31.87;13.67;;;;;;;18.05;41.76;99940.19;5049683;28;20028;-73
2022/10/23 06:45:46;;;;;;;36.67;8.32;;;;;;;18.27;41.14;99957.59;5047963;28;20036;-74
2022/10/23 06:48:12;;;;;;;30.27;11.15;;;;;;;18.40;40.67;99951.75;5064477;28;20127;-73
2022/10/23 06:50:38;;;;;;;17.35;8.05;;;;;;;18.51;40.81;99964.91;5064551;28;20057;-72
2022/10/23 06:53:04;;;;;;;23.67;10.25;;;;;;;18.59;40.94;99965.03;5049718;28;20162;-71
2022/10/23 06:55:30;;;;;;;19.17;9.52;;;;;;;18.72;40.06;99971.34;5053031;28;20028;-73
2022/10/23 06:57:56;;;;;;;20.02;8.00;;;;;;;18.89;40.27;99976.47;5070446;28;20483;-68
2022/10/23 07:00:22;;;;;;;15.63;7.38;;;;;;;19.03;40.05;99978.75;5069976;28;20078;-69
2022/10/23 07:02:47;;;;;;;25.13;6.93;;;;;;;19.18;39.45;99987.47;5071117;28;20033;-70
2022/10/23 07:05:13;;;;;;;12.23;7.93;;;;;;;19.32;39.21;99975.56;5069186;28;20063;-75
2022/10/23 07:07:38;;;;;;;24.73;7.10;;;;;;;19.48;39.20;99983.84;5071860;28;20028;-69
2022/10/23 07:10:05;;;;;;;23.50;6.80;;;;;;;19.54;38.80;99990.00;5071739;28;20052;-71
2022/10/23 07:12:30;;;;;;;20.35;7.60;;;;;;;19.66;38.90;99994.66;5071779;28;20047;-71
2022/10/23 07:14:55;;;;;;;22.27;7.22;;;;;;;19.71;38.88;99986.63;5069486;28;20012;-70
2022/10/23 07:17:21;;;;;;;18.90;8.20;;;;;;;19.86;39.04;99984.78;5070645;28;20020;-74
2022/10/23 07:19:46;;;;;;;14.73;7.07;;;;;;;19.96;38.76;99994.66;5061817;28;20470;-74
2022/10/23 07:22:12;;;;;;;12.35;6.97;;;;;;;20.10;38.67;99996.03;5061278;28;20086;-72
2022/10/23 07:24:39;;;;;;;27.88;8.10;;;;;;;20.13;38.98;99989.56;5044002;28;20218;-72
2022/10/23 07:27:05;;;;;;;11.05;6.40;;;;;;;20.36;38.72;100006.47;5041489;28;20130;-72
2022/10/23 07:29:31;;;;;;;22.08;8.23;;;;;;;20.30;38.84;100010.84;5045007;28;20115;-75
2022/10/23 07:31:59;;;;;;;12.98;6.53;;;;;;;20.35;38.79;100007.69;5063531;28;20012;-68
2022/10/23 07:34:25;;;;;;;17.60;7.13;;;;;;;20.42;39.15;99987.84;5065953;28;20514;-73
2022/10/23 07:36:50;;;;;;;19.30;8.32;;;;;;;20.68;39.58;99980.38;5071505;28;20024;-71
2022/10/23 07:39:16;;;;;;;16.13;6.47;;;;;;;20.81;39.21;99982.94;5052264;28;20086;-70
2022/10/23 07:41:41;;;;;;;23.13;7.40;;;;;;;20.78;39.06;99970.34;5041126;28;20038;-69
2022/10/23 07:44:07;;;;;;;14.73;6.18;;;;;;;20.85;38.67;99981.00;5070733;28;20082;-67
2022/10/23 07:46:32;;;;;;;13.38;6.05;;;;;;;20.88;37.63;99988.72;5067670;28;20019;-70
2022/10/23 07:48:58;;;;;;;11.73;5.57;;;;;;;20.94;36.37;99974.97;5067190;28;20017;-67
2022/10/23 07:51:23;;;;;;;13.77;5.95;;;;;;;21.07;36.48;99978.31;5071220;28;20108;-70
2022/10/23 07:53:49;;;;;;;12.93;6.43;;;;;;;21.27;36.16;99976.81;5071724;28;20548;-70
2022/10/23 07:56:23;;;;;;;11.27;6.72;;;;;;;21.30;35.57;99986.59;5070028;28;20028;-68
2022/10/23 07:58:52;;;;;;;16.77;6.80;;;;;;;21.33;35.72;99980.09;5049589;28;20032;-69
2022/10/23 08:01:39;;;;;;;14.13;6.17;;;;;;;21.49;35.33;99993.22;5070497;28;20521;-69
2022/10/23 08:04:05;;;;;;;21.30;6.82;;;;;;;21.41;34.88;99992.34;5069484;28;20139;-68
2022/10/23 08:06:31;;;;;;;21.55;6.93;;;;;;;21.58;37.77;99987.97;5072280;28;20463;-72
2022/10/23 08:08:57;;;;;;;22.17;7.55;;;;;;;21.68;35.47;100006.38;5070302;28;20410;-72
2022/10/23 08:11:26;;;;;;;31.45;7.28;;;;;;;21.79;36.67;99992.19;5071957;28;20048;-69
2022/10/23 08:13:53;;;;;;;30.33;6.03;;;;;;;21.72;38.57;100002.34;5074377;28;20103;-70
2022/10/23 08:16:19;;;;;;;19.65;6.57;;;;;;;21.85;37.82;99996.28;5062269;28;20439;-71
2022/10/23 08:18:47;;;;;;;21.27;6.05;;;;;;;22.00;37.30;99997.97;5052373;28;20447;-71
2022/10/23 08:21:12;;;;;;;20.30;7.00;;;;;;;22.13;37.38;100009.81;5064093;28;20029;-69
2022/10/23 08:23:38;;;;;;;35.05;6.07;;;;;;;22.10;39.39;100004.91;5051281;28;20063;-70
2022/10/23 08:26:05;;;;;;;18.23;5.75;;;;;;;22.26;39.40;100007.41;5050876;28;20029;-71
2022/10/23 08:28:31;;;;;;;19.00;5.10;;;;;;;22.15;39.57;99996.00;5072598;28;20082;-68
2022/10/23 08:30:56;;;;;;;14.45;5.57;;;;;;;22.37;39.49;99996.03;5054635;28;20028;-67
2022/10/23 08:33:22;;;;;;;10.20;4.85;;;;;;;22.45;39.46;99979.78;5074378;28;20035;-69
2022/10/23 08:35:48;;;;;;;15.95;4.35;;;;;;;22.37;39.50;99978.94;5073358;28;20029;-69
2022/10/23 08:38:14;;;;;;;17.70;4.63;;;;;;;22.27;39.58;99980.56;5073490;28;20386;-71
2022/10/23 08:40:46;;;;;;;27.75;5.28;;;;;;;22.32;39.22;99975.66;5053561;28;20024;-69
2022/10/23 08:43:19;;;;;;;18.35;6.25;;;;;;;22.32;39.53;99975.66;5073423;28;20090;-69
2022/10/23 08:45:50;;;;;;;20.88;5.75;;;;;;;22.53;39.22;99975.75;5055100;28;20453;-70
2022/10/23 08:48:36;;;;;;;26.55;4.93;;;;;;;22.66;39.34;99978.19;5074192;28;20024;-74
2022/10/23 08:51:12;;;;;;;19.88;3.97;;;;;;;22.81;39.31;99979.03;5042945;28;20540;-70
2022/10/23 08:53:38;;;;;;;33.40;4.40;;;;;;;22.84;39.66;99984.72;5052639;28;20032;-72
2022/10/23 08:56:11;;;;;;;24.55;6.03;;;;;;;22.80;39.55;99966.00;5062934;28;20024;-73
2022/10/23 08:58:46;;;;;;;26.23;4.15;;;;;;;22.95;39.21;99966.81;5061701;28;20020;-72
2022/10/23 09:01:39;;;;;;;12.95;3.70;;;;;;;22.76;39.43;99968.03;5063257;28;20027;-72
2022/10/23 09:04:05;;;;;;;6.63;3.80;;;;;;;23.06;39.82;99959.06;5065259;28;20032;-71
2022/10/23 09:06:43;;;;;;;9.27;3.42;;;;;;;23.09;39.29;99969.66;5069544;28;20099;-74
2022/10/23 09:09:23;;;;;;;16.33;3.90;;;;;;;23.14;38.87;99960.66;5072245;28;20430;-72
2022/10/23 09:12:06;;;;;;;;;;;;;;;23.08;39.04;99964.34;5068545;28;20028;-68
2022/10/23 09:14:45;;;;;;;8.20;2.83;;;;;;;23.10;39.41;99954.16;5052964;28;19919;-69
2022/10/23 09:17:27;;;;;;;13.07;2.47;;;;;;;23.47;39.01;99968.38;5070081;28;20131;-69
2022/10/23 09:20:23;;;;;;;55.08;4.78;;;;;;;23.22;37.83;99963.50;5061638;28;20058;-70
2022/10/23 09:22:56;;;;;;;13.55;2.40;;;;;;;23.28;37.58;99959.03;5063091;28;20052;-69
2022/10/23 09:25:25;;;;;;;14.57;1.83;;;;;;;23.34;37.73;99965.13;5071421;28;20144;-71
2022/10/23 09:27:59;;;;;;;9.32;2.28;;;;;;;23.41;38.47;99965.97;5073406;28;20060;-70
2022/10/23 09:30:32;;;;;;;18.23;3.10;;;;;;;23.66;37.97;99967.09;5055466;28;20052;-70
2022/10/23 09:33:00;;;;;;;10.40;2.05;;;;;;;23.77;37.10;99965.00;5073468;28;20032;-71
2022/10/23 09:35:29;;;;;;;7.78;2.00;;;;;;;23.78;36.92;99948.72;5073554;28;20047;-74
2022/10/23 09:37:55;;;;;;;15.13;3.13;;;;;;;23.74;36.54;99950.75;5073402;28;20064;-76
2022/10/23 09:40:39;;;;;;;15.70;2.38;;;;;;;23.87;36.19;99957.63;5072143;28;20437;-75
2022/10/23 09:43:16;;;;;;;16.17;1.90;;;;;;;23.91;35.75;99961.28;5051235;28;20072;-73
2022/10/23 09:45:42;;;;;;;6.60;1.80;;;;;;;23.87;35.53;99949.06;5072080;28;20150;-71
2022/10/23 09:48:14;;;;;;;17.38;1.90;;;;;;;23.84;36.15;99952.75;5071234;28;20046;-73
2022/10/23 09:51:01;;;;;;;7.05;2.45;;;;;;;23.88;34.93;99953.53;5067654;28;20022;-73
2022/10/23 09:53:31;;;;;;;23.00;3.35;;;;;;;23.85;34.48;99945.81;5071441;28;20029;-74
2022/10/23 09:56:00;;;;;;;24.67;2.10;;;;;;;23.81;34.65;99925.03;5068474;28;20112;-71
2022/10/23 09:58:37;;;;;;;10.60;1.90;;;;;;;24.03;34.07;99939.19;5070933;28;20085;-72
2022/10/23 10:01:03;;;;;;;16.60;2.58;;;;;;;23.98;34.06;99923.31;5070899;28;20051;-73
2022/10/23 10:03:29;;;;;;;18.15;2.38;;;;;;;24.05;34.89;99928.19;5053053;28;20536;-73
2022/10/23 10:06:01;;;;;;;11.82;2.22;;;;;;;24.11;34.48;99923.66;5054139;28;20032;-70
2022/10/23 10:08:43;;;;;;;10.93;2.38;;;;;;;24.13;34.13;99926.91;5072180;28;20040;-75
2022/10/23 10:11:17;;;;;;;2.78;1.75;;;;;;;24.24;34.06;99918.28;5051388;28;20136;-74
2022/10/23 10:13:58;;;;;;;7.82;1.42;;;;;;;24.19;33.52;99919.53;5068586;28;20031;-74
2022/10/23 10:16:36;;;;;;;2.83;1.70;;;;;;;24.43;33.24;99914.06;5052555;28;20025;-72
2022/10/23 10:19:38;;;;;;;6.15;1.90;;;;;;;24.30;33.43;99904.38;5068502;28;20027;-82
2022/10/23 10:22:15;;;;;;;7.38;1.55;;;;;;;24.54;32.08;99908.25;5044777;28;20475;-70
2022/10/23 10:24:53;;;;;;;7.47;1.67;;;;;;;24.51;31.53;99889.09;5072447;28;20110;-74
2022/10/23 10:27:40;;;;;;;15.45;2.05;;;;;;;24.62;31.92;99903.31;5069520;28;20033;-74
2022/10/23 10:30:06;;;;;;;5.68;2.28;;;;;;;24.58;31.74;99891.91;5071891;28;20028;-75
2022/10/23 10:32:45;;;;;;;6.55;1.60;;;;;;;24.60;31.63;99885.72;5069020;28;20059;-77
2022/10/23 10:35:46;;;;;;;11.07;3.05;;;;;;;24.54;31.65;99896.81;5071069;28;20033;-74
2022/10/23 10:38:43;;;;;;;9.73;1.95;;;;;;;24.58;32.18;99888.22;5019147;28;20116;-76
2022/10/23 10:41:11;;;;;;;7.30;2.47;;;;;;;24.79;31.54;99873.75;5050651;28;20036;-72
2022/10/23 10:43:55;;;;;;;9.00;2.50;;;;;;;24.74;31.27;99870.50;5062714;28;20426;-73
2022/10/23 10:46:35;;;;;;;10.82;1.88;;;;;;;25.03;31.17;99859.63;5049999;28;20036;-77
2022/10/23 10:49:31;;;;;;;7.72;1.88;;;;;;;25.12;30.23;99873.41;5050303;28;20035;-73
2022/10/23 10:52:32;;;;;;;4.72;1.65;;;;;;;25.06;28.95;99866.53;5069905;28;20027;-75
2022/10/23 10:55:20;;;;;;;4.38;1.30;;;;;;;25.14;28.79;99870.13;5065482;28;20495;-76
2022/10/23 10:57:52;;;;;;;4.93;1.40;;;;;;;25.20;28.83;99859.81;5053235;28;20028;-73
2022/10/23 11:00:21;;;;;;;5.82;1.38;;;;;;;25.22;28.11;99848.78;5070853;28;20029;-73
2022/10/23 11:03:21;;;;;;;3.25;1.63;;;;;;;25.29;28.64;99859.34;5062259;28;20029;-74
2022/10/23 11:05:49;;;;;;;13.27;2.03;;;;;;;25.32;28.35;99856.41;5030046;28;20032;-72
2022/10/23 11:08:26;;;;;;;4.47;1.63;;;;;;;25.29;28.15;99859.34;5071058;28;20048;-71
2022/10/23 11:10:57;;;;;;;5.65;1.38;;;;;;;25.36;28.68;99857.19;5070162;28;20078;-71
2022/10/23 11:13:33;;;;;;;10.27;2.08;;;;;;;25.45;28.15;99855.84;5063994;28;20016;-78
2022/10/23 11:16:09;;;;;;;5.07;1.98;;;;;;;25.45;27.52;99844.41;5065645;28;20199;-71
2022/10/23 11:18:39;;;;;;;6.18;1.88;;;;;;;25.40;27.75;99839.16;5067017;28;20032;-73
2022/10/23 11:21:16;;;;;;;7.72;1.83;;;;;;;25.22;27.18;99843.84;5041144;28;20115;-74
2022/10/23 11:24:12;;;;;;;3.80;1.73;;;;;;;25.36;27.14;99836.34;5052971;28;20039;-70
2022/10/23 11:27:03;;;;;;;4.68;1.40;;;;;;;25.59;26.76;99838.53;5070271;28;20025;-71
2022/10/23 11:29:39;;;;;;;8.48;2.20;;;;;;;25.61;26.82;99840.94;5044506;28;20056;-71
2022/10/23 11:32:39;;;;;;;3.42;1.92;;;;;;;25.70;26.61;99834.69;5065081;28;20032;-73
2022/10/23 11:35:33;;;;;;;6.87;1.60;;;;;;;25.76;26.23;99835.84;5066638;28;20039;-72
2022/10/23 11:38:36;;;;;;;4.22;1.70;;;;;;;25.75;26.42;99834.22;5039990;28;20454;-69
2022/10/23 11:41:32;;;;;;;5.55;2.05;;;;;;;25.63;26.92;99842.16;5054005;28;20117;-70